Time;durP1;ratioP1;P1;durP2;ratioP2;P2;SDS_P1;SDS_P2;PMS_P1;PMS_P2;Temp;Humidity;BMP_temperature;BMP_pressure;BME280_temperature;BME280_humidity;BME280_pressure;Samples;Min_cycle;Max_cycle;Signal;HPM_P1;HPM_P2
2021/06/02 00:01:58;;;;;;;8.00;4.53;;;384.10;1792.00;;;;;;4974369;28;20035;-80
2021/06/02 00:04:32;;;;;;;8.80;4.13;;;384.10;1766.40;;;;;;4974417;28;20034;-81
2021/06/02 00:07:05;;;;;;;7.20;3.95;;;384.10;1766.40;;;;;;4974080;28;20027;-81
2021/06/02 00:09:32;;;;;;;13.38;4.30;;;384.00;1766.40;;;;;;4973902;28;20489;-81
2021/06/02 00:12:02;;;;;;;9.60;4.22;;;384.00;1792.00;;;;;;4974009;28;20109;-81
2021/06/02 00:14:28;;;;;;;10.13;3.65;;;359.30;1792.00;;;;;;4973862;28;20109;-80
2021/06/02 00:16:55;;;;;;;8.63;4.10;;;384.00;1766.40;;;;;;5011494;28;20056;-80
2021/06/02 00:19:22;;;;;;;8.52;3.92;;;359.30;1792.00;;;;;;5016877;28;20013;-81
2021/06/02 00:21:48;;;;;;;11.48;5.03;;;359.20;1792.00;;;;;;5017286;28;20151;-81
2021/06/02 00:24:14;;;;;;;9.40;4.22;;;359.20;1792.00;;;;;;5016668;28;20034;-81
2021/06/02 00:26:41;;;;;;;8.23;4.20;;;359.30;1792.00;;;;;;5034559;28;20023;-81
2021/06/02 00:29:08;;;;;;;8.90;4.32;;;359.30;1817.60;;;;;;5016315;28;20081;-81
2021/06/02 00:31:43;;;;;;;7.53;4.10;;;359.20;1792.00;;;;;;5016739;28;20034;-81
2021/06/02 00:34:09;;;;;;;9.40;4.57;;;359.20;1792.00;;;;;;5039518;28;20030;-81
2021/06/02 00:36:41;;;;;;;14.95;4.68;;;359.30;1792.00;;;;;;5016871;28;20021;-82
2021/06/02 00:39:08;;;;;;;7.63;4.55;;;359.30;1792.00;;;;;;5014798;28;20399;-81
2021/06/02 00:41:35;;;;;;;9.27;4.47;;;384.00;1792.00;;;;;;5016454;28;20029;-82
2021/06/02 00:44:05;;;;;;;9.43;3.97;;;384.00;1792.00;;;;;;5016698;28;20545;-81
2021/06/02 00:46:34;;;;;;;13.93;5.10;;;384.10;1766.40;;;;;;5016651;28;20025;-82
2021/06/02 00:49:01;;;;;;;10.43;3.95;;;384.20;1766.40;;;;;;5016458;28;20025;-81
2021/06/02 00:51:27;;;;;;;8.70;4.63;;;384.20;1766.40;;;;;;5034280;28;20025;-81
2021/06/02 00:53:54;;;;;;;13.07;6.63;;;384.20;1766.40;;;;;;5016453;28;20090;-80
2021/06/02 00:56:43;;;;;;;13.20;8.25;;;384.10;1766.40;;;;;;5038474;28;20100;-81
2021/06/02 00:59:10;;;;;;;10.27;5.88;;;384.00;1792.00;;;;;;5029388;28;20041;-81
2021/06/02 01:01:36;;;;;;;13.95;6.90;;;359.30;1843.20;;;;;;5016060;28;20068;-81
2021/06/02 01:04:04;;;;;;;13.48;5.55;;;359.20;1868.80;;;;;;5016078;28;20041;-80
2021/06/02 01:06:34;;;;;;;12.00;5.88;;;359.00;1894.40;;;;;;5016159;28;20610;-80
2021/06/02 01:09:01;;;;;;;12.43;5.93;;;358.90;1920.00;;;;;;5016070;28;20032;-80
2021/06/02 01:11:28;;;;;;;12.05;5.28;;;358.70;1920.00;;;;;;5015615;28;20021;-81
2021/06/02 01:13:57;;;;;;;11.55;5.03;;;358.50;1971.20;;;;;;5015732;28;20076;-80
2021/06/02 01:16:33;;;;;;;7.57;4.88;;;358.50;1971.20;;;;;;5015586;28;20014;-80
2021/06/02 01:18:59;;;;;;;12.95;5.20;;;358.40;1996.80;;;;;;5015866;28;20510;-80
2021/06/02 01:21:28;;;;;;;14.88;5.78;;;333.70;2022.40;;;;;;5015510;28;20092;-81
2021/06/02 01:24:00;;;;;;;13.82;4.95;;;333.70;2022.40;;;;;;5033275;28;20088;-80
2021/06/02 01:26:28;;;;;;;9.07;4.50;;;333.60;2022.40;;;;;;5030746;28;20092;-80
2021/06/02 01:28:54;;;;;;;12.77;4.68;;;333.50;2048.00;;;;;;5015437;28;20106;-81
2021/06/02 01:31:48;;;;;;;10.82;4.47;;;333.50;2048.00;;;;;;5015599;28;20590;-80
2021/06/02 01:35:08;;;;;;;8.93;5.45;;;333.50;2048.00;;;;;;5014355;28;20037;-82
2021/06/02 01:38:04;;;;;;;9.88;5.72;;;333.50;2048.00;;;;;;4950022;29;20028;-81
2021/06/02 01:41:06;;;;;;;12.65;5.63;;;333.50;2073.60;;;;;;4949154;29;20020;-81
2021/06/02 01:43:50;;;;;;;9.15;5.47;;;333.40;2073.60;;;;;;4949885;29;20118;-82
2021/06/02 01:46:37;;;;;;;13.48;5.85;;;333.40;2048.00;;;;;;4952079;29;20046;-82
2021/06/02 01:49:03;;;;;;;12.77;7.05;;;333.40;2048.00;;;;;;4960855;28;20070;-81
2021/06/02 01:52:00;;;;;;;15.95;7.68;;;333.40;2048.00;;;;;;4953225;29;20032;-81
2021/06/02 01:54:45;;;;;;;11.60;6.25;;;333.50;2048.00;;;;;;4953122;29;20047;-80
2021/06/02 01:57:13;;;;;;;13.60;6.78;;;333.40;2048.00;;;;;;4961042;28;20074;-80
2021/06/02 02:00:00;;;;;;;15.95;6.57;;;333.40;2048.00;;;;;;4953049;29;20036;-81
2021/06/02 02:02:36;;;;;;;14.98;8.00;;;333.40;2048.00;;;;;;4960937;28;20033;-80
2021/06/02 02:05:23;;;;;;;15.48;8.45;;;333.40;2048.00;;;;;;4952265;29;20203;-80
2021/06/02 02:07:57;;;;;;;18.50;7.70;;;333.40;2048.00;;;;;;4958482;28;20027;-80
2021/06/02 02:10:38;;;;;;;9.18;5.10;;;333.20;2048.00;;;;;;4963840;28;20088;-82
2021/06/02 02:13:16;;;;;;;8.20;4.65;;;333.30;2073.60;;;;;;5013951;28;20034;-81
2021/06/02 02:16:23;;;;;;;7.35;4.85;;;333.20;2099.20;;;;;;5014847;28;20040;-80
2021/06/02 02:18:59;;;;;;;8.30;5.57;;;333.20;2073.60;;;;;;4946979;29;20031;-80
2021/06/02 02:21:43;;;;;;;;;;;333.20;2073.60;;;;;;4944855;29;20407;-80
2021/06/02 02:24:11;;;;;;;10.55;5.38;;;333.20;2099.20;;;;;;4952321;29;19914;-81
2021/06/02 02:27:01;;;;;;;13.30;5.88;;;333.10;2099.20;;;;;;4952669;29;20094;-81
2021/06/02 02:30:11;;;;;;;8.25;4.90;;;333.00;2099.20;;;;;;4960354;28;20258;-81
2021/06/02 02:32:55;;;;;;;11.18;4.97;;;333.00;2099.20;;;;;;4952545;29;20122;-81
2021/06/02 02:35:21;;;;;;;11.70;5.25;;;333.00;2099.20;;;;;;4948971;29;20126;-81
2021/06/02 02:37:58;;;;;;;7.45;5.03;;;332.90;2099.20;;;;;;4952063;29;20548;-81
2021/06/02 02:40:27;;;;;;;8.23;5.07;;;332.90;2099.20;;;;;;4952613;29;20019;-81
2021/06/02 02:43:07;;;;;;;8.02;5.35;;;332.90;2099.20;;;;;;4952417;29;20047;-81
2021/06/02 02:45:39;;;;;;;8.48;4.75;;;332.90;2099.20;;;;;;4950184;29;20390;-81
2021/06/02 02:48:27;;;;;;;15.10;5.07;;;332.90;2099.20;;;;;;4952489;29;20031;-81
2021/06/02 02:51:07;;;;;;;10.50;5.78;;;332.90;2099.20;;;;;;4936147;29;20015;-81
2021/06/02 02:53:39;;;;;;;9.60;5.30;;;332.80;2099.20;;;;;;4958233;28;20534;-81
2021/06/02 02:56:18;;;;;;;10.88;5.10;;;332.90;2099.20;;;;;;5010143;28;20041;-81
2021/06/02 02:58:47;;;;;;;16.73;5.63;;;332.90;2099.20;;;;;;5031988;28;20021;-81
2021/06/02 03:01:22;;;;;;;7.68;5.47;;;332.80;2099.20;;;;;;5012076;28;20438;-81
2021/06/02 03:04:04;;;;;;;11.50;5.30;;;307.90;2176.00;;;;;;5014517;28;20478;-80
2021/06/02 03:06:39;;;;;;;9.57;4.85;;;307.80;2176.00;;;;;;5029504;28;20025;-81
2021/06/02 03:09:10;;;;;;;8.63;5.38;;;307.90;2150.40;;;;;;5014560;28;20112;-82
2021/06/02 03:12:02;;;;;;;7.20;4.78;;;308.00;2124.80;;;;;;5014524;28;20034;-82
2021/06/02 03:14:48;;;;;;;12.40;5.43;;;308.10;2124.80;;;;;;5014215;28;20109;-82
2021/06/02 03:17:32;;;;;;;9.03;5.60;;;332.80;2124.80;;;;;;5012489;28;20025;-82
2021/06/02 03:20:10;;;;;;;11.25;5.20;;;332.80;2099.20;;;;;;5030785;28;20088;-81
2021/06/02 03:23:26;;;;;;;11.30;5.47;;;332.90;2124.80;;;;;;5013449;28;20025;-82
2021/06/02 03:26:04;;;;;;;8.77;5.53;;;332.90;2099.20;;;;;;4962390;28;20497;-81
2021/06/02 03:29:00;;;;;;;11.18;5.53;;;308.10;2124.80;;;;;;4963901;28;20555;-81
2021/06/02 03:31:44;;;;;;;14.80;5.60;;;308.10;2176.00;;;;;;4964904;28;20039;-82
2021/06/02 03:34:18;;;;;;;8.73;5.60;;;308.10;2150.40;;;;;;4960846;28;20047;-80
2021/06/02 03:37:26;;;;;;;11.10;5.20;;;308.10;2124.80;;;;;;4962063;28;20036;-80
2021/06/02 03:40:22;;;;;;;11.40;6.00;;;332.80;2124.80;;;;;;4882851;29;20044;-83
2021/06/02 03:43:03;;;;;;;9.30;5.38;;;332.80;2124.80;;;;;;4874905;29;20044;-82
2021/06/02 03:45:50;;;;;;;10.63;5.50;;;332.80;2150.40;;;;;;4874407;29;20037;-81
2021/06/02 03:48:37;;;;;;;13.60;5.88;;;332.80;2150.40;;;;;;4898775;29;20033;-84
2021/06/02 03:51:21;;;;;;;;;;;308.10;2124.80;;;;;;4875887;29;20043;-84
2021/06/02 03:53:59;;;;;;;12.32;4.97;;;308.10;2124.80;;;;;;4874966;29;19931;-82
2021/06/02 03:57:02;;;;;;;9.43;4.78;;;308.10;2124.80;;;;;;4911279;29;20497;-81
2021/06/02 03:59:40;;;;;;;8.32;5.20;;;332.80;2150.40;;;;;;4939185;29;20114;-83
2021/06/02 04:02:18;;;;;;;10.13;5.28;;;332.90;2124.80;;;;;;4938966;29;20031;-83
2021/06/02 04:04:55;;;;;;;7.55;5.20;;;332.90;2150.40;;;;;;4938746;29;20039;-81
2021/06/02 04:08:23;;;;;;;9.77;6.30;;;332.90;2150.40;;;;;;4953733;29;20067;-81
2021/06/02 04:10:51;;;;;;;16.05;6.50;;;333.00;2150.40;;;;;;4921984;29;20032;-81
2021/06/02 04:13:20;;;;;;;11.38;5.65;;;333.10;2150.40;;;;;;4936102;29;20067;-81
2021/06/02 04:15:49;;;;;;;12.48;5.45;;;333.20;2124.80;;;;;;4921243;28;20051;-83
2021/06/02 04:18:19;;;;;;;10.25;5.32;;;333.30;2124.80;;;;;;4955824;28;20070;-81
2021/06/02 04:20:45;;;;;;;13.13;5.93;;;333.20;2176.00;;;;;;4958213;28;20500;-80
2021/06/02 04:23:14;;;;;;;12.75;6.03;;;333.20;2176.00;;;;;;4957607;28;20089;-83
2021/06/02 04:25:41;;;;;;;11.02;5.43;;;333.30;2176.00;;;;;;4957927;28;20027;-85
2021/06/02 04:28:07;;;;;;;11.23;5.57;;;333.40;2176.00;;;;;;4957170;28;20358;-81
2021/06/02 04:30:37;;;;;;;9.57;5.57;;;333.40;2150.40;;;;;;4954488;28;20043;-87
2021/06/02 04:33:04;;;;;;;10.40;5.45;;;333.50;2124.80;;;;;;4974303;28;20030;-85
2021/06/02 04:35:31;;;;;;;11.18;5.40;;;333.60;2099.20;;;;;;4973203;28;20042;-84
2021/06/02 04:37:57;;;;;;;16.67;5.88;;;333.70;2099.20;;;;;;4973518;28;20038;-85
2021/06/02 04:40:24;;;;;;;9.70;6.20;;;333.70;2073.60;;;;;;4957385;28;20027;-82
2021/06/02 04:42:51;;;;;;;9.52;5.35;;;358.50;2073.60;;;;;;4957242;28;20029;-81
2021/06/02 04:45:24;;;;;;;22.50;8.35;;;358.50;2073.60;;;;;;4999649;28;20045;-80
2021/06/02 04:47:51;;;;;;;10.40;6.00;;;358.70;2048.00;;;;;;5016794;28;20356;-80
2021/06/02 04:50:32;;;;;;;14.43;6.97;;;358.60;2048.00;;;;;;5016091;28;20041;-80
2021/06/02 04:53:13;;;;;;;10.98;5.50;;;358.40;2048.00;;;;;;5025700;28;20026;-80
2021/06/02 04:56:12;;;;;;;9.93;6.13;;;358.60;2022.40;;;;;;5032433;28;20029;-80
2021/06/02 04:59:04;;;;;;;9.05;5.38;;;358.60;2048.00;;;;;;5032018;28;20526;-81
2021/06/02 05:01:48;;;;;;;14.18;6.20;;;358.70;2048.00;;;;;;5040193;28;20053;-85
2021/06/02 05:04:42;;;;;;;13.35;5.47;;;358.80;2048.00;;;;;;5016352;28;20025;-80
2021/06/02 05:07:19;;;;;;;8.50;5.38;;;358.80;2048.00;;;;;;5034296;28;20025;-81
2021/06/02 05:09:45;;;;;;;8.38;5.43;;;359.00;2048.00;;;;;;5032689;28;20025;-80
2021/06/02 05:12:14;;;;;;;13.05;5.80;;;358.90;2048.00;;;;;;5033241;28;20078;-83
2021/06/02 05:15:07;;;;;;;11.38;6.15;;;358.90;2073.60;;;;;;5033217;28;20074;-79
2021/06/02 05:18:02;;;;;;;11.05;5.93;;;359.00;2022.40;;;;;;5024622;28;20009;-84
2021/06/02 05:23:56;;;;;;;10.55;6.03;;;359.20;2048.00;;;;;;5000248;28;20044;-83
2021/06/02 05:26:56;;;;;;;9.93;6.40;;;359.20;2073.60;;;;;;5014126;28;20021;-82
2021/06/02 05:29:31;;;;;;;10.95;6.65;;;359.20;2048.00;;;;;;5033382;28;20085;-82
2021/06/02 05:32:34;;;;;;;13.75;7.07;;;359.20;2048.00;;;;;;5027300;28;20030;-80
2021/06/02 05:35:32;;;;;;;11.35;6.45;;;359.30;2048.00;;;;;;5023595;28;20041;-83
2021/06/02 05:38:34;;;;;;;13.60;6.90;;;384.00;2048.00;;;;;;5026285;28;20025;-84
2021/06/02 05:41:05;;;;;;;12.55;6.03;;;359.30;2073.60;;;;;;5039370;28;20025;-83
2021/06/02 05:44:03;;;;;;;10.65;6.28;;;384.00;2022.40;;;;;;5045063;28;20029;-81
2021/06/02 05:47:06;;;;;;;13.07;6.55;;;384.10;2022.40;;;;;;5026840;28;20024;-82
2021/06/02 05:49:59;;;;;;;9.20;6.15;;;384.40;2022.40;;;;;;5034936;28;20036;-82
2021/06/02 05:53:01;;;;;;;11.73;6.40;;;384.50;2022.40;;;;;;5035783;28;20025;-80
2021/06/02 05:55:27;;;;;;;13.05;6.47;;;384.60;2022.40;;;;;;4984709;28;20039;-84
2021/06/02 05:58:23;;;;;;;16.52;7.93;;;384.70;1996.80;;;;;;4991533;28;20041;-82
2021/06/02 06:01:03;;;;;;;38.40;9.80;;;384.90;2022.40;;;;;;4987782;28;20396;-83
2021/06/02 06:03:53;;;;;;;12.75;6.85;;;409.60;2022.40;;;;;;4973018;28;20034;-83
2021/06/02 06:06:40;;;;;;;17.42;6.68;;;409.70;2048.00;;;;;;4984509;28;20042;-79
2021/06/02 06:09:24;;;;;;;;;;;409.70;1996.80;;;;;;4974042;28;20106;-81
2021/06/02 06:12:32;;;;;;;12.40;6.20;;;409.80;1996.80;;;;;;4976051;28;19905;-86
2021/06/02 06:15:19;;;;;;;13.77;6.93;;;410.00;1996.80;;;;;;5000944;28;20036;-82
2021/06/02 06:18:01;;;;;;;23.33;6.35;;;410.10;1996.80;;;;;;5002871;28;20085;-83
2021/06/02 06:21:04;;;;;;;32.28;7.68;;;410.20;1996.80;;;;;;5000275;28;20030;-82
2021/06/02 06:23:38;;;;;;;11.43;6.20;;;410.30;1996.80;;;;;;5014056;28;20097;-82
2021/06/02 06:26:16;;;;;;;11.75;5.50;;;410.50;1920.00;;;;;;4990007;28;20030;-82
2021/06/02 06:28:55;;;;;;;8.25;5.75;;;435.20;1894.40;;;;;;4975308;28;20542;-83
2021/06/02 06:31:27;;;;;;;13.20;5.60;;;410.50;1945.60;;;;;;4992351;28;20058;-83
2021/06/02 06:33:55;;;;;;;8.05;5.28;;;435.30;1894.40;;;;;;5009786;28;20021;-82
2021/06/02 06:36:24;;;;;;;7.88;4.97;;;435.40;1894.40;;;;;;5015133;28;20022;-81
2021/06/02 06:39:08;;;;;;;11.77;5.78;;;435.50;1843.20;;;;;;5016709;28;20029;-82
2021/06/02 06:41:37;;;;;;;8.98;5.43;;;435.60;1868.80;;;;;;5018897;28;20022;-82
2021/06/02 06:44:05;;;;;;;10.85;5.18;;;435.80;1843.20;;;;;;5021113;28;20029;-82
2021/06/02 06:46:32;;;;;;;8.40;5.22;;;435.80;1843.20;;;;;;5019981;28;20017;-81
2021/06/02 06:48:59;;;;;;;9.70;5.68;;;435.90;1843.20;;;;;;5017745;28;20041;-80
2021/06/02 06:51:28;;;;;;;14.13;5.72;;;436.00;1792.00;;;;;;5014700;28;20053;-80
2021/06/02 06:53:56;;;;;;;11.63;5.88;;;460.80;1868.80;;;;;;5014942;28;20033;-81
2021/06/02 06:56:23;;;;;;;8.45;5.40;;;460.90;1792.00;;;;;;5031546;28;20021;-81
2021/06/02 06:58:49;;;;;;;13.02;5.80;;;461.00;1817.60;;;;;;5021468;28;20022;-81
2021/06/02 07:01:16;;;;;;;9.02;5.78;;;461.10;1792.00;;;;;;5026972;28;20041;-79
2021/06/02 07:03:44;;;;;;;11.98;5.32;;;461.20;1792.00;;;;;;5027693;28;20047;-80
2021/06/02 07:06:14;;;;;;;7.97;4.47;;;461.30;1792.00;;;;;;5026530;28;20386;-79
2021/06/02 07:08:44;;;;;;;9.45;4.75;;;461.40;1817.60;;;;;;5025190;28;20021;-80
2021/06/02 07:11:13;;;;;;;11.48;4.93;;;461.50;1715.20;;;;;;5021773;28;20105;-82
2021/06/02 07:13:40;;;;;;;7.47;4.75;;;461.70;1715.20;;;;;;5021950;28;20031;-80
2021/06/02 07:16:07;;;;;;;7.72;4.60;;;461.70;1689.60;;;;;;5033446;28;20014;-81
2021/06/02 07:18:34;;;;;;;8.95;4.13;;;486.40;1689.60;;;;;;5026764;28;20021;-79
2021/06/02 07:21:03;;;;;;;6.70;4.35;;;486.50;1664.00;;;;;;5035008;28;20021;-79
2021/06/02 07:23:31;;;;;;;10.20;5.10;;;486.70;1664.00;;;;;;5024815;28;20044;-79
2021/06/02 07:25:58;;;;;;;9.95;4.88;;;486.70;1664.00;;;;;;5019883;28;20152;-81
2021/06/02 07:28:37;;;;;;;8.15;4.47;;;486.80;1612.80;;;;;;5025029;28;20028;-79
2021/06/02 07:31:04;;;;;;;6.13;3.78;;;487.00;1612.80;;;;;;5034218;28;20071;-80
2021/06/02 07:33:30;;;;;;;8.95;3.78;;;487.10;1612.80;;;;;;5034961;28;20025;-81
2021/06/02 07:35:56;;;;;;;10.73;4.05;;;487.20;1536.00;;;;;;5022592;28;20495;-80
2021/06/02 07:38:22;;;;;;;9.68;4.28;;;487.30;1536.00;;;;;;5023226;28;20059;-81
2021/06/02 07:40:48;;;;;;;6.80;4.10;;;512.00;1536.00;;;;;;5024280;28;20025;-80
2021/06/02 07:43:14;;;;;;;7.22;3.70;;;512.10;1510.40;;;;;;5025428;28;20081;-79
2021/06/02 07:45:40;;;;;;;6.53;3.33;;;512.00;1510.40;;;;;;5034576;28;20060;-80
2021/06/02 07:48:06;;;;;;;10.23;3.97;;;512.40;1484.80;;;;;;5025146;28;20483;-83
2021/06/02 07:50:32;;;;;;;5.07;2.95;;;512.50;1433.60;;;;;;5023145;28;20024;-80
2021/06/02 07:52:57;;;;;;;6.80;3.10;;;512.70;1433.60;;;;;;5033897;28;20021;-79
2021/06/02 07:55:23;;;;;;;15.45;3.47;;;512.60;1382.40;;;;;;5023506;28;20391;-80
2021/06/02 07:57:49;;;;;;;14.57;3.63;;;512.80;1356.80;;;;;;5033583;28;20026;-78
2021/06/02 08:00:15;;;;;;;9.10;3.08;;;512.80;1408.00;;;;;;5016454;28;20064;-80
2021/06/02 08:02:41;;;;;;;9.77;3.58;;;512.90;1356.80;;;;;;5016690;28;20030;-81
2021/06/02 08:05:09;;;;;;;6.97;2.83;;;537.60;1408.00;;;;;;5020747;28;20080;-79
2021/06/02 08:07:35;;;;;;;5.53;3.03;;;537.70;1433.60;;;;;;5020255;28;20053;-80
2021/06/02 08:10:00;;;;;;;7.50;3.25;;;537.80;1408.00;;;;;;5020921;28;20038;-80
2021/06/02 08:12:26;;;;;;;5.68;2.83;;;538.00;1356.80;;;;;;5022094;28;20021;-80
2021/06/02 08:14:52;;;;;;;6.20;2.65;;;538.10;1356.80;;;;;;5024547;28;20025;-80
2021/06/02 08:17:18;;;;;;;4.43;2.80;;;538.10;1331.20;;;;;;5024052;28;20113;-80
2021/06/02 08:19:43;;;;;;;6.38;2.63;;;538.20;1305.60;;;;;;5032853;28;20029;-79
2021/06/02 08:22:09;;;;;;;5.50;2.80;;;538.10;1280.00;;;;;;5018740;28;20033;-81
2021/06/02 08:24:38;;;;;;;6.63;3.00;;;538.10;1280.00;;;;;;5016498;28;20376;-81
2021/06/02 08:27:06;;;;;;;5.97;2.50;;;538.10;1254.40;;;;;;5016286;28;20771;-80
2021/06/02 08:29:32;;;;;;;7.53;2.90;;;538.10;1254.40;;;;;;5033882;28;20045;-79
2021/06/02 08:31:58;;;;;;;14.90;3.28;;;538.20;1254.40;;;;;;5015921;28;20040;-80
2021/06/02 08:34:23;;;;;;;6.90;3.05;;;538.30;1280.00;;;;;;5034515;28;20033;-80
2021/06/02 08:36:49;;;;;;;8.32;2.60;;;538.40;1228.80;;;;;;5030247;28;20028;-80
2021/06/02 08:39:15;;;;;;;4.78;3.03;;;538.40;1254.40;;;;;;5016911;28;20052;-81
2021/06/02 08:41:41;;;;;;;6.60;2.92;;;538.50;1228.80;;;;;;5016428;28;20017;-82
2021/06/02 08:44:07;;;;;;;7.70;3.15;;;563.20;1177.60;;;;;;5012455;28;20029;-81
2021/06/02 08:46:35;;;;;;;7.95;2.70;;;563.20;1203.20;;;;;;5013438;28;20467;-82
2021/06/02 08:49:02;;;;;;;6.28;2.70;;;563.40;1152.00;;;;;;5014032;28;20030;-82
2021/06/02 08:51:28;;;;;;;5.35;2.17;;;563.60;1254.40;;;;;;5029567;28;20112;-82
2021/06/02 08:53:54;;;;;;;8.68;2.65;;;563.70;1254.40;;;;;;5023978;28;20037;-80
2021/06/02 08:56:21;;;;;;;5.65;3.08;;;563.60;1228.80;;;;;;5033971;28;20021;-80
2021/06/02 08:58:47;;;;;;;5.22;2.53;;;563.50;1203.20;;;;;;5014858;28;20392;-80
2021/06/02 09:01:14;;;;;;;6.32;2.67;;;563.40;1152.00;;;;;;5015529;28;20087;-80
2021/06/02 09:03:40;;;;;;;9.05;2.83;;;538.50;1152.00;;;;;;5015307;28;20558;-80
2021/06/02 09:06:07;;;;;;;4.97;2.40;;;563.40;1152.00;;;;;;5014932;28;20079;-82
2021/06/02 09:08:37;;;;;;;4.20;2.38;;;563.40;1203.20;;;;;;5016076;28;20023;-84
2021/06/02 09:11:17;;;;;;;4.85;2.20;;;538.50;1126.40;;;;;;5017710;28;20026;-81
2021/06/02 09:13:44;;;;;;;6.38;2.72;;;538.40;1100.80;;;;;;5031198;28;20100;-79
2021/06/02 09:16:47;;;;;;;3.53;2.20;;;538.30;1100.80;;;;;;5026453;28;20075;-80
2021/06/02 09:19:12;;;;;;;3.95;2.50;;;538.20;1100.80;;;;;;5019649;28;20113;-82
2021/06/02 09:21:39;;;;;;;7.28;2.72;;;538.20;1203.20;;;;;;5044880;28;20462;-82
2021/06/02 09:24:06;;;;;;;8.05;2.90;;;538.50;1203.20;;;;;;5049303;28;20034;-86
2021/06/02 09:26:32;;;;;;;5.47;2.60;;;563.20;1152.00;;;;;;5047821;28;20052;-81
2021/06/02 09:29:02;;;;;;;7.57;2.83;;;563.40;1152.00;;;;;;5057003;28;20064;-81
2021/06/02 09:31:48;;;;;;;14.57;2.53;;;563.60;1100.80;;;;;;5031259;28;20030;-81
2021/06/02 09:34:24;;;;;;;4.47;2.65;;;563.90;1049.60;;;;;;5015555;28;20034;-81
2021/06/02 09:36:51;;;;;;;;;;;588.90;1100.80;;;;;;5006350;28;20483;-81
2021/06/02 09:39:19;;;;;;;5.55;2.53;;;564.10;1075.20;;;;;;5032449;28;19905;-81
2021/06/02 09:41:48;;;;;;;6.70;2.58;;;563.70;1049.60;;;;;;5031993;28;20049;-81
2021/06/02 09:44:22;;;;;;;5.30;2.33;;;564.00;1075.20;;;;;;5031901;28;20049;-80
2021/06/02 09:47:08;;;;;;;7.57;2.80;;;589.00;1049.60;;;;;;5000041;28;20029;-81
2021/06/02 09:49:52;;;;;;;5.05;2.50;;;589.40;1024.00;;;;;;5008339;28;20049;-80
2021/06/02 09:52:19;;;;;;;3.50;2.30;;;589.50;998.40;;;;;;5011417;28;20034;-80
2021/06/02 09:54:46;;;;;;;5.47;2.63;;;589.00;1075.20;;;;;;5063195;28;20036;-82
2021/06/02 09:57:15;;;;;;;4.63;2.33;;;564.10;1049.60;;;;;;5022297;28;20030;-80
2021/06/02 09:59:59;;;;;;;7.13;2.40;;;563.90;1049.60;;;;;;5061181;28;20030;-81
2021/06/02 10:02:25;;;;;;;12.38;3.17;;;589.10;972.80;;;;;;5018713;28;20029;-79
2021/06/02 10:05:11;;;;;;;5.90;2.50;;;589.50;1049.60;;;;;;5029868;28;20179;-80
2021/06/02 10:07:45;;;;;;;6.40;3.03;;;614.50;947.20;;;;;;5031242;28;20478;-81
2021/06/02 10:10:19;;;;;;;6.32;2.10;;;614.40;947.20;;;;;;5014936;28;20025;-81
2021/06/02 10:13:08;;;;;;;8.15;2.85;;;614.80;947.20;;;;;;5015212;28;20056;-81
2021/06/02 10:15:41;;;;;;;11.63;3.42;;;589.70;947.20;;;;;;5015275;28;20024;-82
2021/06/02 10:18:25;;;;;;;7.13;3.10;;;589.30;1024.00;;;;;;5014961;28;20030;-81
2021/06/02 10:21:03;;;;;;;5.72;3.60;;;588.90;1075.20;;;;;;5015173;28;20036;-81
2021/06/02 10:23:32;;;;;;;5.68;2.60;;;564.10;1126.40;;;;;;5015193;28;20104;-80
2021/06/02 10:26:02;;;;;;;5.45;3.13;;;564.10;1100.80;;;;;;5048114;28;20431;-81
2021/06/02 10:28:30;;;;;;;5.25;2.70;;;589.30;1075.20;;;;;;5032421;28;20498;-82
2021/06/02 10:30:56;;;;;;;3.88;2.65;;;589.70;1100.80;;;;;;5061770;28;20116;-81
2021/06/02 10:33:21;;;;;;;6.70;2.70;;;614.60;972.80;;;;;;5031152;28;20562;-81
2021/06/02 10:35:47;;;;;;;7.80;2.85;;;614.80;998.40;;;;;;5031635;28;20076;-81
2021/06/02 10:38:15;;;;;;;8.18;2.70;;;615.00;947.20;;;;;;5028247;28;20438;-81
2021/06/02 10:40:42;;;;;;;8.48;2.92;;;615.20;921.60;;;;;;5014876;28;20033;-80
2021/06/02 10:43:19;;;;;;;6.60;3.63;;;640.00;896.00;;;;;;5014852;28;20041;-82
2021/06/02 10:45:49;;;;;;;8.18;2.60;;;640.10;896.00;;;;;;5014635;28;20057;-80
2021/06/02 10:48:15;;;;;;;5.47;3.08;;;614.80;972.80;;;;;;5032028;28;20021;-80
2021/06/02 10:50:44;;;;;;;7.03;2.63;;;614.50;1049.60;;;;;;5014477;28;20037;-80
2021/06/02 10:53:20;;;;;;;19.30;3.20;;;589.40;1126.40;;;;;;5014967;28;20494;-81
2021/06/02 10:55:55;;;;;;;8.07;2.88;;;589.20;1100.80;;;;;;5031963;28;20017;-80
2021/06/02 10:58:22;;;;;;;4.47;2.20;;;589.10;1100.80;;;;;;5047754;28;20128;-80
2021/06/02 11:01:07;;;;;;;7.22;3.75;;;589.00;1126.40;;;;;;5031237;28;20736;-81
2021/06/02 11:03:34;;;;;;;11.32;3.38;;;589.00;1126.40;;;;;;5014561;28;20033;-81
2021/06/02 11:06:15;;;;;;;6.25;2.92;;;589.30;1126.40;;;;;;5047817;28;20037;-83
2021/06/02 11:08:53;;;;;;;5.82;2.78;;;589.40;1152.00;;;;;;5031065;28;20033;-80
2021/06/02 11:11:29;;;;;;;6.03;2.80;;;614.50;998.40;;;;;;5030683;28;20452;-81
2021/06/02 11:14:23;;;;;;;8.65;2.80;;;614.80;972.80;;;;;;5011129;28;20120;-80
2021/06/02 11:16:50;;;;;;;4.63;2.22;;;615.00;1024.00;;;;;;4994451;28;20467;-82
2021/06/02 11:19:20;;;;;;;5.68;2.50;;;640.00;998.40;;;;;;4995086;28;20026;-81
2021/06/02 11:21:55;;;;;;;5.43;2.42;;;640.20;998.40;;;;;;4995006;28;20102;-82
2021/06/02 11:24:31;;;;;;;4.68;2.45;;;640.10;998.40;;;;;;4995144;28;20065;-82
2021/06/02 11:27:12;;;;;;;;;;;615.00;1049.60;;;;;;4995019;28;20049;-83
2021/06/02 11:29:54;;;;;;;5.55;2.33;;;614.80;1049.60;;;;;;4994666;28;19925;-82
2021/06/02 11:32:22;;;;;;;5.70;2.70;;;589.70;1100.80;;;;;;5012620;28;20490;-81
2021/06/02 11:34:52;;;;;;;4.65;2.10;;;589.50;1100.80;;;;;;5012187;28;20037;-82
2021/06/02 11:37:22;;;;;;;6.18;2.30;;;589.40;1075.20;;;;;;4995019;28;20116;-81
2021/06/02 11:39:51;;;;;;;4.18;2.42;;;589.20;1075.20;;;;;;4994900;28;20034;-81
2021/06/02 11:42:47;;;;;;;4.68;2.60;;;589.10;1075.20;;;;;;4994862;28;20018;-80
2021/06/02 11:45:16;;;;;;;8.02;2.65;;;589.10;1075.20;;;;;;4998349;28;20041;-80
2021/06/02 11:47:49;;;;;;;4.45;2.65;;;589.20;1126.40;;;;;;5028718;28;20025;-79
2021/06/02 11:50:23;;;;;;;3.42;2.40;;;589.10;1075.20;;;;;;5017626;28;20036;-88
2021/06/02 11:52:57;;;;;;;8.43;2.72;;;589.00;1075.20;;;;;;5012302;28;20029;-80
2021/06/02 11:55:24;;;;;;;7.05;2.67;;;589.70;1049.60;;;;;;4998253;28;20029;-83
2021/06/02 11:57:51;;;;;;;6.47;2.30;;;589.50;1049.60;;;;;;5035142;28;20112;-82
2021/06/02 12:00:19;;;;;;;8.35;2.38;;;589.30;1049.60;;;;;;5017832;28;20029;-82
2021/06/02 12:02:46;;;;;;;4.88;2.40;;;589.10;1049.60;;;;;;5017196;28;20041;-81
2021/06/02 12:05:27;;;;;;;5.35;2.40;;;588.90;1100.80;;;;;;5017453;28;20105;-79
2021/06/02 12:07:54;;;;;;;9.48;2.75;;;588.90;1075.20;;;;;;5028244;28;20486;-82
2021/06/02 12:10:25;;;;;;;11.13;2.72;;;589.50;1100.80;;;;;;5019626;28;20026;-81
2021/06/02 12:12:52;;;;;;;5.05;2.05;;;589.60;1024.00;;;;;;5034892;28;20497;-81
2021/06/02 12:15:19;;;;;;;4.28;2.30;;;589.20;1049.60;;;;;;5016069;28;20050;-81
2021/06/02 12:17:47;;;;;;;7.45;2.38;;;589.10;1100.80;;;;;;5034981;28;20018;-81
2021/06/02 12:20:24;;;;;;;6.88;2.90;;;588.90;1100.80;;;;;;5017344;28;20053;-83
2021/06/02 12:22:51;;;;;;;4.20;2.83;;;589.40;1075.20;;;;;;5030368;28;20052;-81
2021/06/02 12:25:19;;;;;;;5.70;2.67;;;589.50;1126.40;;;;;;4996863;28;20069;-81
2021/06/02 12:27:56;;;;;;;5.18;2.58;;;589.30;1049.60;;;;;;4997500;28;20044;-82
2021/06/02 12:30:24;;;;;;;4.40;2.42;;;589.70;1049.60;;;;;;4997446;28;20097;-83
2021/06/02 12:33:00;;;;;;;5.65;2.67;;;614.60;972.80;;;;;;4997500;28;20018;-81
2021/06/02 12:35:33;;;;;;;5.45;2.70;;;615.00;998.40;;;;;;5014820;28;20037;-82
2021/06/02 12:38:14;;;;;;;4.00;2.50;;;615.20;947.20;;;;;;4997218;28;20037;-81
2021/06/02 12:40:43;;;;;;;5.60;2.50;;;614.80;972.80;;;;;;5030677;28;20440;-81
2021/06/02 12:43:10;;;;;;;12.18;2.72;;;614.40;972.80;;;;;;5014392;28;20128;-82
2021/06/02 12:45:37;;;;;;;6.53;2.55;;;589.70;972.80;;;;;;4997156;28;20040;-82
2021/06/02 12:48:03;;;;;;;9.20;2.78;;;614.80;947.20;;;;;;5010121;28;20030;-82
2021/06/02 12:50:44;;;;;;;3.72;2.38;;;615.20;998.40;;;;;;5016818;28;20025;-81
2021/06/02 12:53:13;;;;;;;4.03;2.38;;;615.30;896.00;;;;;;5016683;28;20543;-82
2021/06/02 12:55:42;;;;;;;5.13;2.20;;;615.00;921.60;;;;;;5027727;28;20070;-82
2021/06/02 12:58:16;;;;;;;8.85;2.90;;;614.80;947.20;;;;;;5049086;28;20087;-81